Time;durP1;ratioP1;P1;durP2;ratioP2;P2;SDS_P1;SDS_P2;PMS_P1;PMS_P2;Temp;Humidity;BMP_temperature;BMP_pressure;BME280_temperature;BME280_humidity;BME280_pressure;Samples;Min_cycle;Max_cycle;Signal;HPM_P1;HPM_P2
2022/06/13 00:00:03;;;;;;;5.10;3.30;;;;;;;23.13;58.11;94889.59;5099355;28;20040;-51
2022/06/13 00:02:28;;;;;;;4.68;3.53;;;;;;;23.08;58.11;94884.22;5098769;28;20428;-51
2022/06/13 00:04:54;;;;;;;5.38;3.30;;;;;;;23.08;57.65;94893.13;5095643;28;20022;-50
2022/06/13 00:07:19;;;;;;;4.75;2.83;;;;;;;23.05;57.75;94891.41;5103341;28;20024;-51
2022/06/13 00:09:45;;;;;;;4.93;3.65;;;;;;;23.00;57.93;94892.22;5097221;28;20028;-50
2022/06/13 00:12:10;;;;;;;4.63;3.05;;;;;;;23.00;57.83;94886.78;5088418;28;20032;-51
2022/06/13 00:14:35;;;;;;;5.15;3.17;;;;;;;23.03;57.79;94896.66;5095038;28;20353;-50
2022/06/13 00:17:01;;;;;;;4.78;3.40;;;;;;;23.02;57.69;94900.59;5093330;28;20510;-50
2022/06/13 00:19:26;;;;;;;4.97;2.88;;;;;;;22.98;57.52;94893.97;5094850;28;20106;-51
2022/06/13 00:21:52;;;;;;;5.60;3.05;;;;;;;22.99;57.90;94893.44;5092296;28;20063;-51
2022/06/13 00:24:17;;;;;;;4.20;3.22;;;;;;;22.97;57.99;94904.13;5101828;28;20008;-50
2022/06/13 00:26:43;;;;;;;4.55;3.17;;;;;;;22.95;57.77;94901.16;5101958;28;20106;-51
2022/06/13 00:29:08;;;;;;;4.13;3.25;;;;;;;22.95;58.13;94890.25;5104187;28;20096;-51
2022/06/13 00:31:34;;;;;;;4.15;3.08;;;;;;;22.93;57.74;94900.94;5091238;28;20109;-51
2022/06/13 00:34:00;;;;;;;5.97;3.20;;;;;;;22.96;57.57;94908.09;5105248;28;20028;-51
2022/06/13 00:36:25;;;;;;;6.40;3.35;;;;;;;22.95;57.69;94903.88;5103166;28;20054;-50
2022/06/13 00:38:52;;;;;;;4.10;3.20;;;;;;;22.92;57.82;94913.03;5090212;28;20031;-50
2022/06/13 00:41:23;;;;;;;4.60;3.50;;;;;;;22.94;57.63;94907.88;5085125;28;20019;-50
2022/06/13 00:43:49;;;;;;;5.00;2.97;;;;;;;22.91;57.38;94906.13;5092825;28;20101;-50
2022/06/13 00:46:20;;;;;;;4.85;3.30;;;;;;;22.91;57.41;94900.69;5080235;28;20656;-49
2022/06/13 00:48:47;;;;;;;4.63;2.90;;;;;;;22.90;57.81;94904.66;5092118;28;20020;-50
2022/06/13 00:51:12;;;;;;;6.65;3.13;;;;;;;22.90;57.59;94904.66;5056961;28;20059;-51
2022/06/13 00:53:37;;;;;;;4.47;2.90;;;;;;;22.88;57.71;94911.09;5079851;28;20024;-51
2022/06/13 00:56:22;;;;;;;4.82;2.85;;;;;;;22.86;57.74;94911.63;5103482;28;20032;-51
2022/06/13 00:58:55;;;;;;;4.78;3.28;;;;;;;22.89;57.28;94902.44;5102440;28;20657;-50
2022/06/13 01:01:21;;;;;;;6.57;3.17;;;;;;;22.92;57.62;94902.16;5073393;28;20255;-51
2022/06/13 01:03:48;;;;;;;4.90;2.95;;;;;;;22.88;57.63;94894.78;5068922;28;20026;-51
2022/06/13 01:06:13;;;;;;;5.80;3.30;;;;;;;22.83;57.44;94890.13;5103963;28;20494;-49
2022/06/13 01:08:39;;;;;;;5.10;3.10;;;;;;;22.80;57.82;94893.88;5100690;28;20073;-50
2022/06/13 01:11:26;;;;;;;7.20;3.58;;;;;;;22.78;57.38;94890.88;5097182;28;20038;-49
2022/06/13 01:14:22;;;;;;;5.13;2.70;;;;;;;22.75;57.79;94897.34;5094210;28;20043;-50
2022/06/13 01:16:57;;;;;;;4.40;2.65;;;;;;;22.78;57.53;94885.44;5102296;28;21680;-51
2022/06/13 01:19:25;;;;;;;4.10;3.00;;;;;;;22.75;57.21;94884.50;5095332;28;20028;-51
2022/06/13 01:21:53;;;;;;;5.18;3.20;;;;;;;22.76;57.30;94882.50;5095318;28;20073;-50
2022/06/13 01:24:42;;;;;;;3.20;2.70;;;;;;;22.74;57.18;94885.00;5082883;28;20042;-51
2022/06/13 01:27:31;;;;;;;6.60;3.10;;;;;;;22.73;57.38;94883.50;5070001;28;20629;-50
2022/06/13 01:29:59;;;;;;;4.18;2.70;;;;;;;22.73;56.81;94878.81;5044282;28;20056;-49
2022/06/13 01:32:51;;;;;;;5.22;2.60;;;;;;;22.71;57.03;94886.00;5094176;28;20047;-50
2022/06/13 01:35:35;;;;;;;4.18;2.85;;;;;;;22.70;56.88;94881.81;5082742;28;20035;-50
2022/06/13 01:38:20;;;;;;;4.00;3.03;;;;;;;22.72;56.80;94888.22;5105137;28;20058;-50
2022/06/13 01:41:09;;;;;;;4.97;2.80;;;;;;;22.64;57.25;94886.56;5092196;28;20040;-51
2022/06/13 01:43:54;;;;;;;4.47;2.83;;;;;;;22.65;57.06;94893.50;5074672;28;20028;-49
2022/06/13 01:46:42;;;;;;;5.22;3.08;;;;;;;22.66;57.17;94892.22;5082766;28;20786;-50
2022/06/13 01:49:48;;;;;;;7.03;2.90;;;;;;;22.63;56.98;94896.72;5073317;28;20036;-50
2022/06/13 01:52:26;;;;;;;4.15;2.88;;;;;;;22.65;56.79;94904.38;5066382;28;20024;-51
2022/06/13 01:55:03;;;;;;;4.73;2.60;;;;;;;22.65;56.78;94898.94;5081033;28;20028;-50
2022/06/13 01:57:38;;;;;;;4.70;2.85;;;;;;;22.65;57.05;94898.94;5073135;28;20024;-51
2022/06/13 02:00:12;;;;;;;3.78;2.75;;;;;;;22.58;56.82;94889.31;5100365;28;20051;-51
2022/06/13 02:02:40;;;;;;;4.18;3.17;;;;;;;22.62;57.15;94900.66;5084641;28;20051;-50
2022/06/13 02:05:10;;;;;;;4.50;2.90;;;;;;;22.59;56.94;94900.97;5107344;28;20046;-51
2022/06/13 02:07:42;;;;;;;5.35;2.75;;;;;;;22.59;56.96;94900.97;5080139;28;20063;-50
2022/06/13 02:10:19;;;;;;;4.22;2.70;;;;;;;22.63;57.06;94906.84;5078036;28;20039;-50
2022/06/13 02:12:46;;;;;;;3.70;2.80;;;;;;;22.57;57.21;94912.34;5094689;28;20058;-50
2022/06/13 02:15:14;;;;;;;3.38;2.63;;;;;;;22.60;56.87;94907.84;5075036;28;20023;-51
2022/06/13 02:17:44;;;;;;;5.38;2.80;;;;;;;22.58;56.96;94915.78;5082789;28;20065;-50
2022/06/13 02:20:32;;;;;;;3.40;2.80;;;;;;;22.56;57.05;94907.41;5103063;28;20035;-50
2022/06/13 02:22:58;;;;;;;4.97;2.90;;;;;;;22.55;56.98;94905.94;5082386;28;20122;-50
2022/06/13 02:25:36;;;;;;;4.40;3.00;;;;;;;22.57;57.17;94914.31;5099836;28;20108;-50
2022/06/13 02:28:07;;;;;;;4.07;2.97;;;;;;;22.58;56.63;94915.78;5105545;28;20031;-51
2022/06/13 02:30:40;;;;;;;4.47;2.95;;;;;;;22.53;56.92;94913.88;5078613;28;20057;-50
2022/06/13 02:33:09;;;;;;;4.78;3.40;;;;;;;22.55;56.69;94905.94;5079700;28;20069;-51
2022/06/13 02:35:39;;;;;;;3.50;2.90;;;;;;;22.55;56.62;94905.94;5057995;28;20024;-50
2022/06/13 02:38:08;;;;;;;4.57;2.88;;;;;;;22.54;56.66;94907.16;5049827;28;20020;-50
2022/06/13 02:40:39;;;;;;;3.03;2.65;;;;;;;22.57;57.17;94908.88;5084927;28;20603;-52
2022/06/13 02:43:17;;;;;;;5.30;3.20;;;;;;;22.52;56.95;94906.94;5090621;28;20028;-51
2022/06/13 02:45:50;;;;;;;5.10;3.40;;;;;;;22.51;57.07;94905.44;5083242;28;20085;-51
2022/06/13 02:48:36;;;;;;;5.22;3.38;;;;;;;22.49;57.02;94905.22;5063911;28;20028;-51
2022/06/13 02:51:10;;;;;;;3.00;2.70;;;;;;;22.46;56.89;94914.41;5080701;28;20112;-52
2022/06/13 02:53:46;;;;;;;3.95;3.00;;;;;;;22.46;56.46;94908.97;5084242;28;20024;-51
2022/06/13 02:56:25;;;;;;;3.90;2.90;;;;;;;22.46;56.64;94914.41;5065055;28;20127;-51
2022/06/13 02:59:11;;;;;;;4.72;3.10;;;;;;;22.49;56.97;94910.66;5083292;28;20106;-51
2022/06/13 03:01:39;;;;;;;6.35;3.30;;;;;;;22.46;56.81;94908.97;5062803;28;20494;-53
2022/06/13 03:04:22;;;;;;;3.45;2.72;;;;;;;22.48;56.63;94906.47;5088677;28;20151;-52
2022/06/13 03:06:54;;;;;;;4.72;2.75;;;;;;;22.45;57.05;94907.47;5080471;28;20490;-51
2022/06/13 03:09:36;;;;;;;4.18;2.65;;;;;;;22.45;56.73;94929.25;5088123;28;20024;-51
2022/06/13 03:12:40;;;;;;;4.07;3.13;;;;;;;22.46;57.16;94919.84;5057719;28;20024;-51
2022/06/13 03:15:14;;;;;;;5.57;3.30;;;;;;;22.46;57.00;94923.28;5091867;28;20514;-51
2022/06/13 03:17:44;;;;;;;5.07;2.90;;;;;;;22.43;56.99;94937.19;5069307;28;20028;-51
2022/06/13 03:20:13;;;;;;;;;;;;;;;22.41;57.04;94929.53;5089180;28;20032;-51
2022/06/13 03:22:44;;;;;;;5.18;2.47;;;;;;;22.43;57.32;94934.47;5097875;28;20002;-51
2022/06/13 03:25:13;;;;;;;4.78;3.20;;;;;;;22.45;57.19;94934.69;5101105;28;20035;-51
2022/06/13 03:27:48;;;;;;;5.35;3.03;;;;;;;22.43;57.35;94942.63;5102080;28;20031;-51
2022/06/13 03:30:19;;;;;;;4.15;3.20;;;;;;;22.41;57.39;94936.22;5067734;28;20050;-51
2022/06/13 03:33:40;;;;;;;5.03;2.55;;;;;;;22.39;57.24;94944.88;5051022;28;20574;-51
2022/06/13 03:35:31;;;;;;;3.95;2.65;;;;;;;22.39;57.33;94942.16;5096677;28;20027;-52
2022/06/13 03:37:57;;;;;;;3.35;2.83;;;;;;;22.43;57.04;94948.06;5089135;28;20079;-51
2022/06/13 03:40:24;;;;;;;5.13;2.97;;;;;;;22.41;56.84;94945.84;5083699;28;20028;-52
2022/06/13 03:43:03;;;;;;;4.95;3.13;;;;;;;22.40;56.87;94949.06;5075091;28;20035;-51
2022/06/13 03:45:38;;;;;;;4.22;2.65;;;;;;;22.40;57.17;94949.06;5082239;28;20092;-51
2022/06/13 03:48:22;;;;;;;4.40;2.95;;;;;;;22.42;57.73;94952.03;5074956;28;20031;-51
2022/06/13 03:51:00;;;;;;;5.40;3.10;;;;;;;22.43;57.59;94948.06;5102835;28;20053;-51
2022/06/13 03:53:28;;;;;;;5.03;2.88;;;;;;;22.45;57.56;94953.72;5088651;28;20507;-51
2022/06/13 03:56:40;;;;;;;6.47;3.15;;;;;;;22.48;58.01;94950.00;5073379;28;20020;-51
2022/06/13 03:59:35;;;;;;;9.95;3.50;;;;;;;22.48;58.07;94956.19;5072316;28;20537;-51
2022/06/13 04:02:04;;;;;;;9.80;3.95;;;;;;;22.49;58.27;94956.94;5056017;28;20043;-51
2022/06/13 04:04:35;;;;;;;11.07;3.55;;;;;;;22.45;58.77;94957.22;5096036;28;20692;-51
2022/06/13 04:07:01;;;;;;;14.13;4.00;;;;;;;22.53;58.63;94954.69;5059362;28;20036;-51
2022/06/13 04:09:30;;;;;;;10.13;3.22;;;;;;;22.58;58.54;94951.91;5084561;28;20024;-50
2022/06/13 04:12:05;;;;;;;6.95;3.40;;;;;;;22.60;58.66;94956.84;5067523;28;20034;-51
2022/06/13 04:14:49;;;;;;;11.60;3.97;;;;;;;22.62;58.88;94959.81;5091479;28;20373;-51
2022/06/13 04:17:24;;;;;;;8.52;4.07;;;;;;;22.63;59.15;94955.84;5082838;28;20560;-51
2022/06/13 04:20:00;;;;;;;9.15;3.60;;;;;;;22.64;59.30;94962.78;5083414;28;20070;-51
2022/06/13 04:22:47;;;;;;;7.50;3.60;;;;;;;22.67;59.40;94959.03;5083128;28;20499;-51
2022/06/13 04:25:46;;;;;;;8.57;3.90;;;;;;;22.72;59.57;94947.34;5098161;28;20028;-52
2022/06/13 04:28:18;;;;;;;7.90;4.38;;;;;;;22.77;59.17;94943.88;5076469;28;20051;-51
2022/06/13 04:30:44;;;;;;;7.45;3.95;;;;;;;22.78;59.33;94945.34;5085530;28;20051;-51
2022/06/13 04:33:17;;;;;;;7.15;3.75;;;;;;;22.82;59.34;94945.81;5071422;28;20048;-50
2022/06/13 04:35:42;;;;;;;7.07;4.00;;;;;;;22.86;59.45;94946.28;5088743;28;20035;-50
2022/06/13 04:38:09;;;;;;;7.80;3.97;;;;;;;22.93;59.57;94947.22;5078851;28;20036;-50
2022/06/13 04:40:44;;;;;;;9.65;3.70;;;;;;;22.96;59.58;94943.50;5058769;28;20027;-51
2022/06/13 04:43:11;;;;;;;6.13;4.00;;;;;;;23.03;59.78;94945.66;5081686;28;20023;-51
2022/06/13 04:46:13;;;;;;;6.88;4.20;;;;;;;23.04;59.44;94941.69;5064327;28;20024;-49
2022/06/13 04:48:39;;;;;;;6.50;4.30;;;;;;;23.16;59.64;94943.06;5069614;28;20029;-51
2022/06/13 04:51:31;;;;;;;5.18;4.18;;;;;;;23.25;59.18;94940.00;5049805;28;20030;-53
2022/06/13 04:54:01;;;;;;;7.22;4.15;;;;;;;23.32;58.92;94938.69;5090403;28;20058;-52
2022/06/13 04:56:27;;;;;;;7.50;4.68;;;;;;;23.39;59.16;94945.06;5079648;28;20500;-53
2022/06/13 04:58:53;;;;;;;8.60;5.00;;;;;;;23.46;59.34;94944.50;5101499;28;20043;-51
2022/06/13 05:01:31;;;;;;;5.57;4.10;;;;;;;23.62;58.82;94943.59;5084627;28;20033;-51
2022/06/13 05:03:58;;;;;;;8.10;4.97;;;;;;;23.74;58.35;94936.78;5070599;28;20031;-52
2022/06/13 05:06:50;;;;;;;6.22;4.55;;;;;;;23.84;57.85;94945.34;5080938;28;20427;-51
2022/06/13 05:09:29;;;;;;;7.68;4.47;;;;;;;23.97;57.55;94948.91;5100497;28;20047;-53
2022/06/13 05:12:25;;;;;;;6.00;4.50;;;;;;;24.09;57.96;94942.78;5072003;28;20406;-51
2022/06/13 05:14:50;;;;;;;8.07;4.53;;;;;;;24.26;57.36;94937.88;5071451;28;20028;-52
2022/06/13 05:17:46;;;;;;;8.93;4.93;;;;;;;24.39;57.19;94935.97;5087912;28;20466;-52
2022/06/13 05:20:41;;;;;;;9.18;4.53;;;;;;;24.41;56.78;94936.19;5084403;28;20088;-52
2022/06/13 05:23:18;;;;;;;8.73;4.50;;;;;;;24.57;57.04;94945.41;5096827;28;20034;-51
2022/06/13 05:25:44;;;;;;;7.63;4.30;;;;;;;24.67;57.09;94935.56;5102850;28;20022;-51
2022/06/13 05:28:11;;;;;;;5.82;4.28;;;;;;;24.81;57.07;94942.56;5093412;28;20028;-51
2022/06/13 05:30:38;;;;;;;5.15;4.07;;;;;;;24.86;57.45;94945.94;5100455;28;20092;-51
2022/06/13 05:33:04;;;;;;;5.55;4.05;;;;;;;24.98;57.32;94936.31;5068543;28;20730;-51
2022/06/13 05:35:33;;;;;;;8.45;3.92;;;;;;;25.10;58.49;94934.16;5097614;28;20015;-51
2022/06/13 05:38:01;;;;;;;5.35;3.97;;;;;;;25.27;57.38;94940.09;5075056;28;20067;-52
2022/06/13 05:40:28;;;;;;;5.78;4.20;;;;;;;25.29;58.79;94938.31;5093350;28;20023;-53
2022/06/13 05:42:55;;;;;;;5.82;4.15;;;;;;;25.25;57.99;94932.41;5084920;28;20573;-51
2022/06/13 05:45:22;;;;;;;6.15;4.05;;;;;;;25.33;56.62;94938.72;5095441;28;20119;-52
2022/06/13 05:47:50;;;;;;;5.70;4.22;;;;;;;25.36;56.29;94937.66;5065906;28;20112;-55
2022/06/13 05:50:23;;;;;;;6.55;3.63;;;;;;;25.40;56.27;94935.38;5090730;28;20110;-52
2022/06/13 05:52:49;;;;;;;4.88;3.38;;;;;;;25.41;56.14;94939.56;5064152;28;20497;-51
2022/06/13 05:55:15;;;;;;;7.40;3.97;;;;;;;25.53;55.53;94932.63;5065254;28;20066;-52
2022/06/13 05:57:41;;;;;;;6.05;4.05;;;;;;;25.49;55.41;94930.22;5072674;28;20022;-51
2022/06/13 06:00:14;;;;;;;6.18;3.67;;;;;;;25.69;55.09;94934.34;5090004;28;20028;-52
2022/06/13 06:02:40;;;;;;;12.27;5.00;;;;;;;25.66;55.01;94932.69;5068364;28;20517;-51
2022/06/13 06:05:06;;;;;;;4.97;3.80;;;;;;;25.75;54.80;94940.47;5089122;28;20074;-50
2022/06/13 06:07:31;;;;;;;6.30;3.90;;;;;;;25.74;54.68;94939.72;5082830;28;20070;-52
2022/06/13 06:09:57;;;;;;;6.70;4.03;;;;;;;25.79;54.90;94946.38;5051849;28;20024;-52
2022/06/13 06:12:22;;;;;;;6.28;4.18;;;;;;;25.70;54.58;94939.31;5063807;28;20086;-51
2022/06/13 06:14:48;;;;;;;6.78;4.05;;;;;;;25.60;54.44;94940.22;5079881;28;20989;-51
2022/06/13 06:17:13;;;;;;;4.65;3.47;;;;;;;25.59;54.81;94941.47;5076978;28;20031;-51
2022/06/13 06:19:39;;;;;;;5.55;3.92;;;;;;;25.65;54.52;94936.66;5080698;28;20515;-51
2022/06/13 06:22:04;;;;;;;6.47;4.03;;;;;;;25.63;54.73;94939.16;5085051;28;20035;-51
2022/06/13 06:24:30;;;;;;;4.85;3.65;;;;;;;25.56;54.83;94942.53;5087135;28;20027;-51
2022/06/13 06:26:56;;;;;;;5.78;3.80;;;;;;;25.53;55.06;94947.06;5088745;28;20027;-52
2022/06/13 06:29:21;;;;;;;7.30;4.43;;;;;;;25.61;55.05;94952.63;5097019;28;20035;-50
2022/06/13 06:31:47;;;;;;;6.88;4.35;;;;;;;25.53;54.62;94951.78;5087902;28;20024;-52
2022/06/13 06:34:13;;;;;;;10.82;5.00;;;;;;;25.47;54.58;94951.13;5078972;28;20115;-53
2022/06/13 06:36:38;;;;;;;7.00;4.50;;;;;;;25.48;54.93;94955.34;5078319;28;20062;-52
2022/06/13 06:39:04;;;;;;;6.20;4.53;;;;;;;25.39;54.84;94958.50;5078189;28;20096;-52
2022/06/13 06:41:29;;;;;;;6.38;4.72;;;;;;;25.37;55.28;94952.81;5084459;28;20032;-52
2022/06/13 06:43:55;;;;;;;7.32;4.70;;;;;;;25.34;55.57;94957.31;5084901;28;20438;-52
2022/06/13 06:46:20;;;;;;;6.80;3.95;;;;;;;25.23;55.90;94956.81;5085497;28;20031;-52
2022/06/13 06:48:45;;;;;;;6.65;4.30;;;;;;;25.18;55.63;94954.88;5093896;28;20035;-51
2022/06/13 06:51:13;;;;;;;7.15;4.25;;;;;;;25.15;55.27;94950.44;5091979;28;20021;-51
2022/06/13 07:01:51;;;;;;;5.95;3.70;;;;;;;24.87;55.11;94963.81;5091420;28;20035;-52
2022/06/13 07:04:17;;;;;;;8.02;3.40;;;;;;;24.88;54.43;94948.88;5050810;28;20970;-52
2022/06/13 07:06:42;;;;;;;5.93;3.55;;;;;;;24.88;54.27;94954.34;5081974;28;20016;-52
2022/06/13 07:09:08;;;;;;;5.22;3.47;;;;;;;24.81;53.94;94945.28;5092976;28;20016;-52
2022/06/13 07:14:18;;;;;;;5.43;3.30;;;;;;;24.75;53.64;94950.09;5075568;28;20081;-52
2022/06/13 07:16:43;;;;;;;4.88;3.60;;;;;;;24.77;53.84;94953.03;5082411;28;20040;-51
2022/06/13 07:19:09;;;;;;;6.22;3.70;;;;;;;24.70;54.02;94948.91;5080195;28;20028;-51
2022/06/13 07:21:34;;;;;;;6.18;3.75;;;;;;;24.70;54.70;94953.66;5075231;28;20916;-50
2022/06/13 07:24:00;;;;;;;4.93;3.65;;;;;;;24.59;54.75;94948.38;5088541;28;20918;-51
2022/06/13 07:26:26;;;;;;;6.13;3.67;;;;;;;24.61;54.62;94952.03;5079679;28;20119;-51
2022/06/13 07:28:51;;;;;;;4.70;3.47;;;;;;;24.64;54.51;94951.00;5086033;28;20055;-50
2022/06/13 07:31:18;;;;;;;5.38;3.78;;;;;;;24.62;54.68;94952.75;5088566;28;20020;-50
2022/06/13 07:33:45;;;;;;;4.72;3.60;;;;;;;24.55;55.25;94937.72;5090368;28;20056;-50
2022/06/13 07:36:10;;;;;;;4.97;3.55;;;;;;;24.59;55.29;94948.38;5084989;28;20035;-50
2022/06/13 07:38:36;;;;;;;4.90;3.10;;;;;;;24.58;54.97;94952.34;5066307;28;20668;-50
2022/06/13 07:41:02;;;;;;;5.88;4.13;;;;;;;24.61;54.99;94952.03;5077272;28;20042;-53
2022/06/13 07:43:31;;;;;;;6.57;3.88;;;;;;;24.53;55.11;94955.91;5060513;28;20067;-55
2022/06/13 07:45:59;;;;;;;5.43;3.53;;;;;;;24.56;55.67;94954.88;5064925;28;20047;-53
2022/06/13 07:48:25;;;;;;;5.05;3.40;;;;;;;24.55;55.63;94948.66;5082598;28;20811;-53
2022/06/13 07:50:51;;;;;;;5.30;3.38;;;;;;;24.53;55.07;94944.97;5076772;28;20020;-56
2022/06/13 07:53:17;;;;;;;9.25;4.43;;;;;;;24.53;55.43;94961.34;5081864;28;20055;-52
2022/06/13 07:55:42;;;;;;;5.78;3.63;;;;;;;24.52;55.55;94949.69;5084750;28;20021;-53
2022/06/13 07:58:34;;;;;;;6.72;4.40;;;;;;;24.53;55.34;94956.63;5062443;28;20081;-53
2022/06/13 08:01:00;;;;;;;5.20;3.67;;;;;;;24.61;55.16;94945.84;5053950;28;20044;-55
2022/06/13 08:03:29;;;;;;;5.32;3.67;;;;;;;24.57;55.27;94945.41;5083031;28;20020;-53
2022/06/13 08:05:54;;;;;;;6.47;3.60;;;;;;;24.64;55.70;94950.25;5062792;28;20065;-53
2022/06/13 08:08:20;;;;;;;5.00;3.72;;;;;;;24.62;55.75;94942.59;5080288;28;20640;-56
2022/06/13 08:10:46;;;;;;;5.18;3.85;;;;;;;24.66;55.18;94951.19;5052177;28;20647;-54
2022/06/13 08:13:16;;;;;;;5.20;3.55;;;;;;;24.67;54.70;94951.97;5069819;28;20063;-52
2022/06/13 08:15:42;;;;;;;7.18;4.00;;;;;;;24.71;54.37;94950.41;5066666;28;20030;-55
2022/06/13 08:18:07;;;;;;;6.32;3.42;;;;;;;24.69;54.66;94946.72;5067957;28;20019;-54
2022/06/13 08:20:33;;;;;;;4.60;3.33;;;;;;;24.69;54.77;94947.44;5092497;28;20031;-53
2022/06/13 08:23:00;;;;;;;4.97;3.70;;;;;;;24.73;54.46;94953.34;5077396;28;20031;-54
2022/06/13 08:25:27;;;;;;;3.88;3.22;;;;;;;24.73;54.55;94952.63;5103612;28;20508;-54
2022/06/13 08:27:56;;;;;;;7.30;3.40;;;;;;;24.75;54.29;94961.03;5084311;28;20501;-52
2022/06/13 08:30:22;;;;;;;4.53;3.50;;;;;;;24.77;54.05;94955.75;5069595;28;20044;-52
2022/06/13 08:32:48;;;;;;;4.70;3.30;;;;;;;24.77;54.49;94961.22;5075697;28;20459;-53
2022/06/13 08:35:14;;;;;;;6.45;3.65;;;;;;;24.81;54.18;94961.66;5095624;28;20115;-52
2022/06/13 08:37:39;;;;;;;7.40;3.35;;;;;;;24.81;54.38;94958.94;5091628;28;20047;-54
2022/06/13 08:40:05;;;;;;;5.82;3.42;;;;;;;24.82;54.51;94956.41;5095441;28;20041;-52
2022/06/13 08:43:06;;;;;;;5.25;2.90;;;;;;;24.84;54.24;94953.91;5088841;28;20031;-51
2022/06/13 08:45:41;;;;;;;3.90;2.85;;;;;;;24.90;54.46;94957.31;5080320;28;20034;-54
2022/06/13 08:48:21;;;;;;;5.15;3.90;;;;;;;24.92;53.97;94965.72;5093739;28;20100;-53
2022/06/13 08:50:50;;;;;;;7.13;3.40;;;;;;;24.93;54.24;94960.97;5057248;28;20093;-51
2022/06/13 08:53:21;;;;;;;4.00;3.03;;;;;;;24.94;54.49;94957.72;5074736;28;20030;-56
2022/06/13 08:55:49;;;;;;;4.75;3.13;;;;;;;24.94;53.24;94946.78;5078161;28;20081;-51
2022/06/13 08:58:21;;;;;;;5.03;3.03;;;;;;;24.97;53.87;94950.50;5072717;28;20044;-58
2022/06/13 09:00:55;;;;;;;3.75;3.08;;;;;;;25.00;53.64;94955.66;5071892;28;20032;-54
2022/06/13 09:03:29;;;;;;;5.03;3.33;;;;;;;25.05;53.61;94946.66;5072458;28;20028;-58
2022/06/13 09:06:03;;;;;;;5.47;3.20;;;;;;;25.05;54.11;94946.66;5054471;28;20051;-52
2022/06/13 09:08:37;;;;;;;4.00;2.60;;;;;;;25.02;53.96;94947.72;5100165;28;20514;-55
2022/06/13 09:11:12;;;;;;;4.57;2.90;;;;;;;25.07;53.52;94949.59;5048464;28;20039;-53
2022/06/13 09:13:49;;;;;;;4.13;2.83;;;;;;;25.10;53.33;94942.38;5077494;28;20098;-54
2022/06/13 09:16:32;;;;;;;4.43;3.50;;;;;;;25.10;53.36;94951.28;5055608;28;20024;-55
2022/06/13 09:19:02;;;;;;;3.92;2.85;;;;;;;25.13;52.94;94947.50;5081991;28;20102;-52
2022/06/13 09:21:50;;;;;;;4.65;3.20;;;;;;;25.12;52.62;94951.50;5069744;28;20031;-53
2022/06/13 09:24:19;;;;;;;4.25;3.35;;;;;;;25.19;52.81;94945.44;5079414;28;20032;-54
2022/06/13 09:26:53;;;;;;;5.53;3.30;;;;;;;25.22;52.96;94949.84;5097521;28;20119;-52
2022/06/13 09:29:38;;;;;;;7.03;2.97;;;;;;;25.26;52.74;94939.34;5095475;28;20040;-58
2022/06/13 09:32:23;;;;;;;4.18;3.13;;;;;;;25.38;52.22;94941.38;5055616;28;20337;-59
2022/06/13 09:35:00;;;;;;;4.10;2.88;;;;;;;25.42;52.42;94936.31;5092418;28;20425;-55
2022/06/13 09:37:55;;;;;;;5.13;3.17;;;;;;;25.57;52.08;94935.81;5091988;28;20100;-52
2022/06/13 09:40:44;;;;;;;3.88;2.70;;;;;;;25.71;51.17;94929.09;5089494;28;20080;-53
2022/06/13 09:43:38;;;;;;;3.47;2.67;;;;;;;25.85;51.07;94929.28;5083976;28;20040;-54
2022/06/13 09:46:13;;;;;;;4.80;3.08;;;;;;;25.95;51.16;94933.09;5099268;28;20024;-56
2022/06/13 09:49:03;;;;;;;3.95;2.72;;;;;;;26.10;50.49;94930.53;5098695;28;20019;-56
2022/06/13 09:51:55;;;;;;;5.45;3.10;;;;;;;26.23;49.99;94919.53;5091636;28;20062;-57
2022/06/13 09:54:33;;;;;;;4.82;2.80;;;;;;;26.32;49.41;94925.38;5072112;28;20039;-54
2022/06/13 09:57:17;;;;;;;3.70;2.90;;;;;;;26.43;49.29;94932.59;5075714;28;20031;-57
2022/06/13 10:00:11;;;;;;;4.50;2.80;;;;;;;26.55;48.91;94918.13;5084216;28;20055;-55
2022/06/13 10:02:46;;;;;;;3.30;3.00;;;;;;;26.64;48.33;94925.16;5077035;28;20019;-59
2022/06/13 10:05:34;;;;;;;3.75;2.67;;;;;;;26.75;47.96;94919.41;5062954;28;20023;-56
2022/06/13 10:08:04;;;;;;;3.88;2.85;;;;;;;26.89;48.17;94918.84;5094117;28;20028;-59
2022/06/13 10:10:45;;;;;;;4.68;2.78;;;;;;;27.00;47.50;94929.56;5080824;28;20028;-53
2022/06/13 10:13:28;;;;;;;4.93;2.92;;;;;;;27.07;47.63;94924.13;5066547;28;20077;-58
2022/06/13 10:15:58;;;;;;;4.20;2.83;;;;;;;27.07;46.73;94924.13;5092594;28;20031;-54
2022/06/13 10:18:44;;;;;;;4.53;3.15;;;;;;;27.24;45.81;94921.72;5072894;28;20034;-54
2022/06/13 10:21:39;;;;;;;5.00;2.97;;;;;;;27.35;45.61;94915.94;5100848;28;20102;-54
2022/06/13 10:24:21;;;;;;;3.00;2.65;;;;;;;27.44;45.79;94912.72;5089616;28;20040;-55
2022/06/13 10:27:17;;;;;;;5.82;3.17;;;;;;;27.46;46.11;94910.19;5068463;28;20052;-55
2022/06/13 10:29:56;;;;;;;4.80;2.97;;;;;;;27.55;45.49;94915.19;5056822;28;20119;-55
2022/06/13 10:32:36;;;;;;;4.93;2.87;;;;;;;27.64;45.55;94914.69;5073210;28;20106;-53
2022/06/13 10:35:14;;;;;;;4.88;3.10;;;;;;;27.71;45.37;94903.03;5070928;28;20040;-51
2022/06/13 10:37:56;;;;;;;4.40;2.88;;;;;;;27.67;45.22;94902.63;5069831;28;20055;-53
2022/06/13 10:40:22;;;;;;;5.65;3.20;;;;;;;27.71;45.44;94897.53;5086131;28;20032;-51
2022/06/13 10:42:47;;;;;;;4.95;3.20;;;;;;;27.74;45.41;94908.91;5049814;28;20093;-53
2022/06/13 10:45:14;;;;;;;5.43;3.08;;;;;;;27.86;45.19;94893.63;5085628;28;20023;-54
2022/06/13 10:47:52;;;;;;;4.20;3.00;;;;;;;27.73;45.71;94890.97;5088753;28;20081;-51
2022/06/13 10:50:41;;;;;;;3.65;2.72;;;;;;;27.70;45.76;94890.56;5065354;28;20510;-53
2022/06/13 10:53:34;;;;;;;5.72;3.20;;;;;;;27.66;45.71;94884.72;5091314;28;20138;-53
2022/06/13 10:55:59;;;;;;;7.90;3.25;;;;;;;27.68;46.09;94887.66;5028406;28;20046;-53
2022/06/13 10:58:38;;;;;;;4.95;3.08;;;;;;;27.64;46.57;94881.75;5067982;28;20036;-55
2022/06/13 11:01:23;;;;;;;4.13;2.80;;;;;;;27.60;46.20;94875.91;5066745;28;20096;-55
2022/06/13 11:04:17;;;;;;;4.97;3.15;;;;;;;27.55;46.64;94868.53;5065529;28;20402;-53
2022/06/13 11:06:48;;;;;;;3.95;3.55;;;;;;;27.51;46.16;94873.66;5067375;28;20144;-52
2022/06/13 11:09:44;;;;;;;5.35;3.05;;;;;;;27.46;46.56;94860.81;5063131;28;20198;-53
2022/06/13 11:12:23;;;;;;;4.97;3.40;;;;;;;27.47;46.91;94851.28;5071130;28;20153;-52
2022/06/13 11:23:37;;;;;;;6.65;3.55;;;;;;;27.25;47.67;94840.91;5098138;28;20053;-53
2022/06/13 11:27:39;;;;;;;5.75;3.38;;;;;;;27.21;47.71;94837.78;5068297;28;20991;-54
2022/06/13 11:28:49;;;;;;;3.63;3.05;;;;;;;27.14;47.97;94830.22;5069008;28;20051;-54
2022/06/13 11:31:15;;;;;;;5.03;3.45;;;;;;;27.09;47.90;94833.13;5079747;28;20028;-53
2022/06/13 11:33:40;;;;;;;4.60;3.30;;;;;;;27.05;47.86;94827.97;5081777;28;20482;-52
2022/06/13 11:36:15;;;;;;;4.60;3.10;;;;;;;26.98;48.71;94828.66;5084144;28;20027;-51
2022/06/13 11:39:01;;;;;;;5.25;2.90;;;;;;;26.98;48.07;94823.19;5082323;28;20023;-54
2022/06/13 11:41:43;;;;;;;4.93;3.20;;;;;;;26.99;48.30;94819.16;5081279;28;20039;-54
2022/06/13 11:44:19;;;;;;;5.40;3.40;;;;;;;26.99;48.02;94813.66;5061931;28;20034;-53
2022/06/13 11:46:55;;;;;;;4.13;3.20;;;;;;;26.94;48.42;94811.81;5081062;28;20027;-52
2022/06/13 11:49:32;;;;;;;4.85;3.42;;;;;;;26.95;48.30;94802.34;5079943;28;20194;-54
2022/06/13 11:52:01;;;;;;;6.30;3.60;;;;;;;26.95;48.53;94813.28;5081192;28;20031;-52
2022/06/13 11:54:48;;;;;;;5.22;3.38;;;;;;;26.90;48.52;94805.94;5081570;28;20036;-53
2022/06/13 11:57:33;;;;;;;5.25;3.78;;;;;;;26.90;48.59;94808.66;5063062;28;20035;-53
2022/06/13 12:00:07;;;;;;;4.60;3.58;;;;;;;26.81;48.67;94806.38;5062168;28;20101;-52
2022/06/13 12:02:41;;;;;;;5.30;3.85;;;;;;;26.83;48.80;94812.09;5084318;28;20031;-56
2022/06/13 12:05:19;;;;;;;5.30;3.15;;;;;;;26.81;48.45;94809.13;5089520;28;20020;-54
2022/06/13 12:08:15;;;;;;;5.90;4.15;;;;;;;26.80;49.00;94802.19;5086757;28;20032;-52
2022/06/13 12:10:56;;;;;;;4.90;3.83;;;;;;;26.80;48.65;94795.97;5083381;28;20020;-52
2022/06/13 12:13:22;;;;;;;5.00;3.65;;;;;;;26.78;48.84;94782.78;5068067;28;20058;-55
2022/06/13 12:16:10;;;;;;;6.20;3.90;;;;;;;26.74;48.99;94791.91;5085200;28;20044;-53
2022/06/13 12:19:00;;;;;;;5.40;3.80;;;;;;;26.79;48.77;94789.03;5059187;28;20120;-55
2022/06/13 12:21:46;;;;;;;;;;;;;;;26.76;48.99;94789.38;5068473;28;20082;-52
2022/06/13 12:24:21;;;;;;;4.68;3.90;;;;;;;26.77;48.57;94778.59;5090669;28;20031;-50